Time;durP1;ratioP1;P1;durP2;ratioP2;P2;SDS_P1;SDS_P2;PMS_P1;PMS_P2;Temp;Humidity;BMP_temperature;BMP_pressure;BME280_temperature;BME280_humidity;BME280_pressure;Samples;Min_cycle;Max_cycle;Signal;HPM_P1;HPM_P2
2021/07/25 00:02:22;;;;;;;11.45;9.82;;;;;;;22.34;55.02;99928.97;5009334;28;20077;-79
2021/07/25 00:04:48;;;;;;;19.00;10.45;;;;;;;22.23;55.96;99930.53;5006479;28;20038;-79
2021/07/25 00:07:13;;;;;;;12.85;9.48;;;;;;;22.14;55.70;99932.88;5008628;28;20042;-79
2021/07/25 00:09:39;;;;;;;11.80;10.45;;;;;;;22.07;55.71;99924.38;5005686;28;20132;-79
2021/07/25 00:12:04;;;;;;;11.38;10.15;;;;;;;22.01;56.19;99930.16;5007362;28;20035;-79
2021/07/25 00:14:30;;;;;;;12.65;10.75;;;;;;;21.98;56.48;99927.63;5007430;28;20033;-79
2021/07/25 00:16:55;;;;;;;10.98;9.88;;;;;;;21.95;56.57;99925.13;5006542;28;20014;-79
2021/07/25 00:19:20;;;;;;;12.13;10.85;;;;;;;21.93;56.76;99933.31;5008225;28;20041;-79
2021/07/25 00:21:46;;;;;;;12.60;11.18;;;;;;;21.95;56.71;99931.38;5000065;28;20038;-79
2021/07/25 00:24:11;;;;;;;12.60;10.48;;;;;;;21.98;57.12;99927.63;5005084;28;20030;-79
2021/07/25 00:26:47;;;;;;;12.10;10.48;;;;;;;21.98;57.01;99924.94;5007834;28;20050;-79
2021/07/25 00:29:12;;;;;;;11.50;10.30;;;;;;;22.03;56.80;99922.81;5005246;28;20080;-79
2021/07/25 00:31:38;;;;;;;11.40;9.88;;;;;;;22.06;56.68;99928.00;5008108;28;20033;-78
2021/07/25 00:34:04;;;;;;;12.10;10.63;;;;;;;22.10;56.90;99929.53;5004773;28;20049;-79
2021/07/25 00:36:29;;;;;;;11.90;10.40;;;;;;;;;;5007065;28;20042;-79
2021/07/25 00:38:55;;;;;;;11.32;10.13;;;;;;;22.14;57.03;99923.03;5014617;28;20030;-79
2021/07/25 00:41:20;;;;;;;12.63;10.57;;;;;;;22.16;57.15;99922.91;5006114;28;20408;-79
2021/07/25 00:43:47;;;;;;;14.18;11.73;;;;;;;22.17;57.18;99921.97;5008109;28;20034;-79
2021/07/25 00:46:13;;;;;;;14.65;11.32;;;;;;;22.16;57.19;99921.09;5005026;28;20097;-79
2021/07/25 00:48:39;;;;;;;12.23;10.93;;;;;;;22.19;57.07;99929.00;5008850;28;20025;-79
2021/07/25 00:51:05;;;;;;;11.52;10.20;;;;;;;22.18;57.61;99921.00;5005335;28;20409;-79
2021/07/25 00:53:34;;;;;;;15.82;12.18;;;;;;;22.21;58.10;99927.06;5008249;28;20046;-79
2021/07/25 00:56:02;;;;;;;12.27;10.63;;;;;;;22.21;57.76;99913.63;5005244;28;20057;-79
2021/07/25 00:58:28;;;;;;;11.65;9.85;;;;;;;22.21;57.68;99916.31;5008357;28;20492;-79
2021/07/25 01:00:53;;;;;;;11.88;10.20;;;;;;;22.20;58.01;99919.13;5006445;28;20042;-79
2021/07/25 01:03:36;;;;;;;12.55;11.25;;;;;;;22.20;58.12;99919.13;5010066;28;20037;-79
2021/07/25 01:06:10;;;;;;;12.50;10.32;;;;;;;22.20;58.15;99917.28;5004668;28;20397;-79
2021/07/25 01:08:43;;;;;;;12.57;11.15;;;;;;;22.22;58.32;99919.88;5004530;28;20121;-79
2021/07/25 01:11:10;;;;;;;13.27;11.00;;;;;;;22.21;58.22;99912.75;5007516;28;20503;-79
2021/07/25 01:13:40;;;;;;;14.02;11.63;;;;;;;22.18;57.95;99927.22;5017149;28;20061;-79
2021/07/25 01:16:07;;;;;;;15.82;11.10;;;;;;;22.17;58.43;99920.13;5005897;28;20030;-79
2021/07/25 01:18:32;;;;;;;13.88;12.38;;;;;;;22.15;58.02;99919.38;5007993;28;20058;-79
2021/07/25 01:20:57;;;;;;;14.82;10.98;;;;;;;22.11;58.54;99923.19;5016659;28;20041;-79
2021/07/25 01:23:23;;;;;;;12.88;11.57;;;;;;;22.09;58.27;99917.94;5005497;28;20038;-79
2021/07/25 01:25:55;;;;;;;16.42;12.93;;;;;;;22.09;59.14;99919.78;5007526;28;20246;-79
2021/07/25 01:28:25;;;;;;;13.68;12.23;;;;;;;22.06;58.69;99917.25;5004138;28;20382;-79
2021/07/25 01:30:54;;;;;;;13.32;11.90;;;;;;;22.04;59.13;99912.00;5008429;28;20064;-79
2021/07/25 01:33:25;;;;;;;13.77;11.52;;;;;;;21.98;59.34;99908.81;5004054;28;20022;-79
2021/07/25 01:35:52;;;;;;;13.43;11.35;;;;;;;21.95;59.38;99904.50;5003538;28;20046;-79
2021/07/25 01:38:17;;;;;;;14.05;11.35;;;;;;;21.90;59.30;99909.31;5007829;28;20030;-79
2021/07/25 01:41:00;;;;;;;12.10;10.80;;;;;;;21.82;59.87;99901.75;5004681;28;20069;-79
2021/07/25 01:43:26;;;;;;;13.27;11.82;;;;;;;21.77;59.22;99897.59;5006089;28;20048;-79
2021/07/25 01:45:51;;;;;;;12.63;11.30;;;;;;;21.67;60.02;99905.38;5007373;28;20121;-78
2021/07/25 01:48:16;;;;;;;12.90;11.38;;;;;;;21.62;60.11;99902.13;5004160;28;20501;-79
2021/07/25 01:50:42;;;;;;;12.40;11.15;;;;;;;21.56;60.08;99906.06;5007984;28;20441;-79
2021/07/25 01:53:07;;;;;;;14.32;11.38;;;;;;;21.53;60.18;99897.31;5005387;28;20642;-79
2021/07/25 01:55:32;;;;;;;12.82;11.18;;;;;;;21.45;60.21;99895.09;5006459;28;20398;-78
2021/07/25 01:57:57;;;;;;;12.00;10.70;;;;;;;21.39;60.25;99893.66;5005155;28;20527;-78
2021/07/25 02:00:23;;;;;;;13.88;10.55;;;;;;;21.34;60.51;99897.53;5005608;28;20042;-78
2021/07/25 02:02:48;;;;;;;15.82;12.02;;;;;;;21.28;60.44;99904.16;5007900;28;20048;-79
2021/07/25 02:05:13;;;;;;;12.48;11.13;;;;;;;21.21;60.79;99900.09;5018991;28;20038;-79
2021/07/25 02:07:39;;;;;;;13.73;12.32;;;;;;;21.15;61.14;99904.03;5008055;28;20045;-79
2021/07/25 02:10:05;;;;;;;13.02;11.60;;;;;;;21.07;61.17;99906.31;5005001;28;20049;-79
2021/07/25 02:12:30;;;;;;;12.45;11.13;;;;;;;21.02;60.92;99905.72;5018649;28;20034;-79
2021/07/25 02:14:55;;;;;;;14.15;11.43;;;;;;;20.97;61.72;99908.66;5006388;28;20141;-79
2021/07/25 02:17:20;;;;;;;14.50;11.48;;;;;;;20.91;61.70;99906.34;5004860;28;20034;-79
2021/07/25 02:19:46;;;;;;;15.90;11.68;;;;;;;20.87;61.62;99909.31;5005100;28;20042;-78
2021/07/25 02:22:11;;;;;;;14.40;12.43;;;;;;;20.84;62.00;99915.72;5007261;28;20042;-78
2021/07/25 02:24:36;;;;;;;13.77;11.27;;;;;;;20.80;61.61;99903.41;4999128;28;20074;-78
2021/07/25 02:27:02;;;;;;;15.07;12.27;;;;;;;20.76;62.29;99896.53;5003748;28;20081;-78
2021/07/25 02:29:27;;;;;;;14.20;11.52;;;;;;;20.74;62.15;99898.41;5006717;28;20508;-78
2021/07/25 02:31:53;;;;;;;12.40;11.10;;;;;;;20.71;62.12;99895.94;5003917;28;20118;-78
2021/07/25 02:34:18;;;;;;;13.27;11.73;;;;;;;20.73;62.64;99896.72;5005483;28;20081;-78
2021/07/25 02:36:44;;;;;;;14.50;12.30;;;;;;;20.75;62.55;99900.13;5004325;28;20520;-78
2021/07/25 02:39:09;;;;;;;13.57;12.18;;;;;;;20.73;62.48;99907.44;5004994;28;20499;-78
2021/07/25 02:41:34;;;;;;;13.73;11.60;;;;;;;20.64;62.59;99911.50;5006160;28;20093;-78
2021/07/25 02:44:00;;;;;;;15.95;12.85;;;;;;;20.55;63.25;99920.94;5017915;28;20448;-79
2021/07/25 02:46:25;;;;;;;13.50;12.07;;;;;;;20.56;63.46;99921.78;5022023;28;20056;-78
2021/07/25 02:48:51;;;;;;;13.05;11.75;;;;;;;20.62;62.82;99921.47;5025619;28;20067;-78
2021/07/25 02:51:16;;;;;;;13.52;12.13;;;;;;;20.62;63.75;99932.19;5007126;28;20044;-79
2021/07/25 02:53:41;;;;;;;14.40;12.10;;;;;;;20.65;63.30;99925.78;5005202;28;20038;-78
2021/07/25 02:56:07;;;;;;;15.52;11.60;;;;;;;20.72;63.13;99922.66;5008867;28;20034;-79
2021/07/25 02:58:32;;;;;;;15.52;11.60;;;;;;;20.75;63.22;99940.34;5009125;28;20041;-78
2021/07/25 03:00:57;;;;;;;13.50;12.05;;;;;;;20.68;63.76;99939.00;5007283;28;20093;-78
2021/07/25 03:03:23;;;;;;;15.52;13.13;;;;;;;20.69;63.18;99932.69;5009603;28;20038;-78
2021/07/25 03:05:48;;;;;;;13.68;11.30;;;;;;;20.68;63.21;99936.31;5007376;28;20132;-78
2021/07/25 03:08:13;;;;;;;14.43;12.18;;;;;;;20.69;62.99;99936.22;5010426;28;20057;-79
2021/07/25 03:10:40;;;;;;;14.25;12.70;;;;;;;20.58;63.63;99954.75;5007371;28;20049;-78
2021/07/25 03:13:05;;;;;;;14.52;12.50;;;;;;;20.57;63.31;99945.84;5004987;28;20045;-78
2021/07/25 03:15:31;;;;;;;12.93;11.63;;;;;;;20.49;63.30;99949.88;5008893;28;20133;-79
2021/07/25 03:17:56;;;;;;;15.02;12.02;;;;;;;20.43;63.28;99945.72;5009615;28;20075;-79
2021/07/25 03:20:21;;;;;;;14.82;12.82;;;;;;;20.39;63.68;99946.84;5007510;28;20057;-78
2021/07/25 03:22:47;;;;;;;13.52;12.13;;;;;;;20.37;63.38;99951.44;5010480;28;20072;-78
2021/07/25 03:25:12;;;;;;;12.43;11.15;;;;;;;20.36;63.10;99942.53;5006440;28;20500;-78
2021/07/25 03:27:38;;;;;;;13.40;11.98;;;;;;;20.38;63.58;99949.59;5004578;28;20038;-78
2021/07/25 03:30:04;;;;;;;12.45;11.15;;;;;;;20.38;63.19;99944.25;5008906;28;20069;-78
2021/07/25 03:32:29;;;;;;;13.80;11.75;;;;;;;20.34;63.36;99944.41;5008275;28;20073;-79
2021/07/25 03:34:55;;;;;;;14.55;13.02;;;;;;;20.13;64.19;99967.91;5019121;28;20472;-78
2021/07/25 03:37:20;;;;;;;16.58;13.52;;;;;;;20.05;65.20;99959.44;5008451;28;20055;-78
2021/07/25 03:39:48;;;;;;;16.50;11.95;;;;;;;19.97;65.35;99945.59;5009404;28;20681;-78
2021/07/25 03:42:14;;;;;;;14.27;12.80;;;;;;;19.93;64.98;99947.56;5021274;28;20034;-78
2021/07/25 03:44:40;;;;;;;13.70;12.10;;;;;;;19.91;64.86;99951.25;5009882;28;20046;-78
2021/07/25 03:47:06;;;;;;;12.98;11.60;;;;;;;19.87;65.44;99945.22;5004598;28;20101;-78
2021/07/25 03:49:32;;;;;;;14.00;12.50;;;;;;;19.79;65.36;99943.91;5009281;28;20119;-78
2021/07/25 03:51:57;;;;;;;14.27;12.25;;;;;;;19.75;65.23;99945.88;5006956;28;20037;-78
2021/07/25 03:54:23;;;;;;;14.18;12.48;;;;;;;19.76;65.12;99942.25;5002182;28;20044;-78
2021/07/25 03:56:48;;;;;;;15.45;11.98;;;;;;;19.78;65.28;99942.16;5009435;28;20040;-78
2021/07/25 03:59:13;;;;;;;15.18;12.38;;;;;;;19.78;65.42;99944.84;5013855;28;20049;-78
2021/07/25 04:01:39;;;;;;;16.88;12.38;;;;;;;19.81;65.24;99953.59;5007038;28;20037;-78
2021/07/25 04:04:04;;;;;;;13.77;12.30;;;;;;;19.83;65.16;99941.00;5005824;28;20125;-78
2021/07/25 04:06:33;;;;;;;13.55;12.13;;;;;;;19.86;64.97;99948.84;5007194;28;20042;-78
2021/07/25 04:08:59;;;;;;;13.20;11.80;;;;;;;19.92;64.82;99945.84;5005728;28;20505;-78
2021/07/25 04:11:25;;;;;;;14.43;12.68;;;;;;;19.96;65.20;99948.34;5004320;28;20585;-78
2021/07/25 04:13:50;;;;;;;14.77;12.30;;;;;;;20.03;65.00;99949.75;5007378;28;20074;-78
2021/07/25 04:16:16;;;;;;;13.70;12.30;;;;;;;20.10;65.10;99952.00;5006239;28;20034;-78
2021/07/25 04:18:41;;;;;;;14.75;12.30;;;;;;;20.15;65.42;99949.09;5006205;28;20439;-78
2021/07/25 04:21:07;;;;;;;16.33;12.02;;;;;;;20.25;64.79;99953.00;5005978;28;20180;-78
2021/07/25 04:23:32;;;;;;;13.77;12.32;;;;;;;20.36;65.03;99963.09;5001690;28;20061;-78
2021/07/25 04:25:58;;;;;;;14.20;12.55;;;;;;;20.46;64.49;99961.66;5006862;28;20417;-78
2021/07/25 04:28:23;;;;;;;14.57;13.07;;;;;;;20.54;64.51;99972.84;5008083;28;20067;-78
2021/07/25 04:30:49;;;;;;;15.18;12.38;;;;;;;20.63;64.14;99962.53;5004091;28;20042;-78
2021/07/25 04:33:16;;;;;;;14.93;12.23;;;;;;;20.72;64.23;99964.69;5003222;28;20045;-78
2021/07/25 04:35:42;;;;;;;13.77;12.13;;;;;;;20.77;63.51;99967.97;5007458;28;20378;-78
2021/07/25 04:38:07;;;;;;;15.50;13.25;;;;;;;20.81;63.79;99974.88;5005310;28;20049;-78
2021/07/25 04:40:33;;;;;;;15.23;12.32;;;;;;;20.83;63.60;99973.00;5006186;28;20038;-78
2021/07/25 04:42:59;;;;;;;16.92;13.45;;;;;;;20.83;63.80;99978.34;5007818;28;20034;-78
2021/07/25 04:45:30;;;;;;;15.70;12.20;;;;;;;20.94;63.15;99965.19;5005277;28;20097;-78
2021/07/25 04:48:07;;;;;;;12.90;11.57;;;;;;;21.04;63.23;99959.25;5006268;28;20073;-78
2021/07/25 04:50:44;;;;;;;14.73;12.13;;;;;;;21.10;63.31;99965.16;5013659;28;20021;-78
2021/07/25 04:53:21;;;;;;;14.75;13.13;;;;;;;21.14;63.07;99968.50;5009044;28;20042;-78
2021/07/25 04:55:58;;;;;;;14.30;12.80;;;;;;;21.10;63.43;99964.28;5003386;28;20038;-78
2021/07/25 04:58:39;;;;;;;15.32;13.27;;;;;;;21.19;62.84;99969.09;5004435;28;20035;-78
2021/07/25 05:01:05;;;;;;;15.52;13.65;;;;;;;21.14;63.46;99965.81;5005888;28;20042;-78
2021/07/25 05:03:32;;;;;;;16.92;13.77;;;;;;;21.18;62.57;99957.50;5013133;28;20260;-78
2021/07/25 05:05:58;;;;;;;14.57;13.13;;;;;;;21.18;62.76;99954.81;5001268;28;20034;-78
2021/07/25 05:08:23;;;;;;;15.35;13.68;;;;;;;21.19;62.57;99950.31;5005751;28;20081;-78
2021/07/25 05:10:55;;;;;;;15.82;13.80;;;;;;;21.18;62.76;99953.97;5005419;28;20040;-78
2021/07/25 05:13:25;;;;;;;17.15;13.10;;;;;;;21.17;63.26;99949.56;5005650;28;20473;-78
2021/07/25 05:15:51;;;;;;;14.55;13.00;;;;;;;21.31;62.28;99957.66;5006409;28;20041;-78
2021/07/25 05:18:32;;;;;;;13.73;12.32;;;;;;;21.33;62.89;99961.09;5005263;28;20045;-78
2021/07/25 05:21:07;;;;;;;15.57;12.65;;;;;;;21.33;62.40;99961.09;5004155;28;20030;-78
2021/07/25 05:23:41;;;;;;;13.82;12.25;;;;;;;21.47;62.65;99954.06;5007439;28;20038;-78
2021/07/25 05:26:09;;;;;;;15.25;13.27;;;;;;;21.57;62.16;99947.19;5002834;28;20181;-78
2021/07/25 05:28:36;;;;;;;14.25;12.57;;;;;;;21.67;61.53;99946.53;5007469;28;20552;-78
2021/07/25 05:31:02;;;;;;;16.05;13.95;;;;;;;21.73;61.24;99947.97;5003565;28;20034;-78
2021/07/25 05:33:27;;;;;;;14.30;12.80;;;;;;;21.81;60.88;99951.03;5007485;28;20044;-78
2021/07/25 05:35:53;;;;;;;14.52;13.02;;;;;;;21.76;61.08;99950.47;5004612;28;20038;-78
2021/07/25 05:38:18;;;;;;;14.98;13.38;;;;;;;21.72;61.17;99951.63;5005910;28;20045;-78
2021/07/25 05:40:44;;;;;;;15.48;13.77;;;;;;;21.73;61.10;99942.59;5005560;28;20041;-78
2021/07/25 05:43:10;;;;;;;16.15;14.50;;;;;;;21.75;61.24;99951.44;5004742;28;20098;-78
2021/07/25 05:45:36;;;;;;;15.75;12.88;;;;;;;21.73;61.61;99941.75;5006714;28;20029;-78
2021/07/25 05:48:02;;;;;;;15.75;13.20;;;;;;;21.76;61.44;99952.28;5003932;28;20526;-78
2021/07/25 05:50:27;;;;;;;16.40;14.13;;;;;;;21.81;61.65;99945.66;5007005;28;20025;-78
2021/07/25 05:52:55;;;;;;;15.13;12.93;;;;;;;21.86;62.01;99954.31;5003389;28;20026;-78
2021/07/25 05:55:22;;;;;;;14.65;13.13;;;;;;;21.98;61.57;99946.44;5001787;28;20098;-78
2021/07/25 05:57:48;;;;;;;16.50;14.25;;;;;;;22.02;61.51;99947.97;5006237;28;20026;-78
2021/07/25 06:00:13;;;;;;;14.25;12.75;;;;;;;22.06;61.43;99954.88;5004735;28;20484;-78
2021/07/25 06:02:58;;;;;;;14.35;12.57;;;;;;;22.17;61.94;99967.66;5005495;28;20096;-78
2021/07/25 06:05:25;;;;;;;15.23;13.13;;;;;;;22.24;61.95;99969.91;5003301;28;20737;-78
2021/07/25 06:07:52;;;;;;;14.52;12.98;;;;;;;22.33;61.56;99973.81;5005554;28;20034;-78
2021/07/25 06:10:19;;;;;;;15.23;13.40;;;;;;;22.37;61.83;99964.56;5003532;28;20826;-78
2021/07/25 06:12:44;;;;;;;14.95;12.95;;;;;;;22.46;61.64;99964.00;5006509;28;20046;-78
2021/07/25 06:15:10;;;;;;;15.05;13.35;;;;;;;22.52;61.39;99973.50;5003784;28;20053;-78
2021/07/25 06:17:36;;;;;;;15.25;13.65;;;;;;;22.51;62.15;99975.31;5005387;28;20474;-78
2021/07/25 06:20:02;;;;;;;15.73;13.32;;;;;;;22.62;61.49;99971.06;5005171;28;20038;-78
2021/07/25 06:22:48;;;;;;;14.07;12.68;;;;;;;22.83;60.54;99966.13;5016520;28;20061;-78
2021/07/25 06:25:18;;;;;;;13.63;12.23;;;;;;;22.97;59.53;99968.78;5005682;28;20567;-78
2021/07/25 06:27:43;;;;;;;14.10;12.50;;;;;;;23.10;59.04;99974.19;5010767;28;20042;-79
2021/07/25 06:30:09;;;;;;;14.50;13.00;;;;;;;23.10;59.07;99972.38;5003452;28;20053;-78
2021/07/25 06:32:58;;;;;;;14.95;13.27;;;;;;;23.10;58.67;99969.66;5005878;28;20588;-78
2021/07/25 06:35:25;;;;;;;14.60;13.15;;;;;;;23.02;59.03;99972.00;5004131;28;20040;-78
2021/07/25 06:37:50;;;;;;;13.75;12.35;;;;;;;23.02;59.07;99969.31;5005945;28;20034;-78
2021/07/25 06:40:15;;;;;;;14.20;12.77;;;;;;;23.00;58.44;99979.31;5015330;28;20164;-78
2021/07/25 06:42:41;;;;;;;13.82;12.48;;;;;;;23.03;58.39;99979.16;5002642;28;20180;-79
2021/07/25 06:45:07;;;;;;;13.82;11.68;;;;;;;23.04;58.94;99980.84;5017966;28;20480;-78
2021/07/25 06:47:32;;;;;;;14.07;11.55;;;;;;;23.06;58.49;99980.78;5005917;28;20488;-78
2021/07/25 06:49:57;;;;;;;13.50;12.10;;;;;;;23.09;58.15;99983.25;5003495;28;20044;-78
2021/07/25 06:52:23;;;;;;;13.82;11.38;;;;;;;23.22;57.65;99988.69;5004780;28;20409;-78
2021/07/25 06:54:48;;;;;;;13.07;11.38;;;;;;;23.43;56.76;99983.66;5004450;28;20404;-79
2021/07/25 06:57:13;;;;;;;12.27;11.07;;;;;;;23.58;57.20;99985.31;4999431;28;20030;-79
2021/07/25 06:59:39;;;;;;;13.88;11.52;;;;;;;23.70;56.15;99984.44;5005369;28;20050;-79
2021/07/25 07:02:04;;;;;;;12.88;11.45;;;;;;;23.78;56.15;99975.84;5004827;28;20045;-78
2021/07/25 07:04:30;;;;;;;13.13;11.77;;;;;;;23.90;56.00;99980.41;5002491;28;20129;-79
2021/07/25 07:06:55;;;;;;;13.60;11.40;;;;;;;24.04;55.57;99982.13;5008961;28;20030;-79
2021/07/25 07:09:20;;;;;;;12.18;10.88;;;;;;;24.19;55.34;99980.16;5003753;28;20084;-79
2021/07/25 07:11:46;;;;;;;14.75;11.50;;;;;;;24.25;54.21;99974.31;5016985;28;20045;-79
2021/07/25 07:14:11;;;;;;;11.75;10.52;;;;;;;24.39;53.83;99971.50;5002748;28;20041;-78
2021/07/25 07:16:36;;;;;;;12.48;10.23;;;;;;;24.51;53.83;99968.91;5005639;28;20042;-78
2021/07/25 07:19:02;;;;;;;12.07;10.85;;;;;;;24.54;53.73;99974.09;4998690;28;20038;-78
2021/07/25 07:21:27;;;;;;;12.63;11.32;;;;;;;24.71;53.57;99977.25;5003241;28;20636;-79
2021/07/25 07:23:53;;;;;;;13.68;11.50;;;;;;;25.02;52.87;99982.19;5021700;28;20033;-78
2021/07/25 07:26:18;;;;;;;12.90;11.38;;;;;;;25.34;51.63;99969.88;5004008;28;20031;-79
2021/07/25 07:28:43;;;;;;;11.77;10.60;;;;;;;25.50;50.83;99974.09;5005752;28;20153;-78
2021/07/25 07:31:08;;;;;;;14.77;11.57;;;;;;;25.65;51.15;99967.50;5007578;28;20048;-79
2021/07/25 07:33:34;;;;;;;12.70;11.43;;;;;;;25.75;50.69;99971.22;5008720;28;20034;-79
2021/07/25 07:35:59;;;;;;;11.63;10.43;;;;;;;25.75;50.52;99968.50;5009576;28;20125;-79
2021/07/25 07:38:24;;;;;;;12.30;10.90;;;;;;;25.76;50.22;99975.63;5019195;28;20497;-79
2021/07/25 07:40:50;;;;;;;13.95;11.73;;;;;;;25.74;50.18;99977.56;5022771;28;20508;-79
2021/07/25 07:43:21;;;;;;;12.07;10.77;;;;;;;25.76;49.88;99977.47;5006039;28;20054;-79
2021/07/25 07:45:48;;;;;;;11.55;10.35;;;;;;;25.83;49.81;99969.72;5007574;28;20061;-79
2021/07/25 07:48:13;;;;;;;15.45;10.70;;;;;;;25.78;49.82;99986.28;5010630;28;20120;-79
2021/07/25 07:50:41;;;;;;;12.55;10.95;;;;;;;25.71;49.97;99991.34;5008778;28;20318;-79
2021/07/25 07:53:07;;;;;;;12.75;10.43;;;;;;;25.60;49.92;99991.31;5022327;28;20042;-79
2021/07/25 07:55:32;;;;;;;12.60;11.30;;;;;;;25.53;50.86;99995.47;5009758;28;20408;-79
2021/07/25 07:57:57;;;;;;;12.32;11.02;;;;;;;25.48;50.64;99994.97;5009687;28;20115;-79
2021/07/25 08:00:23;;;;;;;11.75;10.50;;;;;;;25.52;51.00;99993.75;5008765;28;20405;-79
2021/07/25 08:02:48;;;;;;;11.70;10.45;;;;;;;25.54;50.26;99991.78;5010879;28;20038;-79
2021/07/25 08:05:13;;;;;;;11.88;10.68;;;;;;;25.59;50.32;99992.28;5007999;28;20050;-79
2021/07/25 08:07:39;;;;;;;12.25;10.95;;;;;;;25.67;49.93;99992.53;5023267;28;20038;-79
2021/07/25 08:10:06;;;;;;;12.02;10.82;;;;;;;25.76;50.35;99999.94;5010937;28;20489;-79
2021/07/25 08:12:31;;;;;;;11.90;10.57;;;;;;;25.80;50.25;99996.00;5008002;28;20030;-79
2021/07/25 08:14:56;;;;;;;12.18;10.45;;;;;;;25.91;49.73;99989.81;5009339;28;20049;-79
2021/07/25 08:17:22;;;;;;;12.95;10.38;;;;;;;26.13;49.50;99993.53;5009347;28;20029;-79
2021/07/25 08:19:47;;;;;;;12.68;10.50;;;;;;;26.24;49.13;99980.00;5008428;28;20031;-79
2021/07/25 08:22:12;;;;;;;13.00;9.48;;;;;;;26.37;48.94;99985.28;5009161;28;20037;-79
2021/07/25 08:24:40;;;;;;;10.70;9.60;;;;;;;26.51;48.28;99986.84;5007529;28;20038;-79
2021/07/25 08:27:09;;;;;;;12.10;10.73;;;;;;;26.54;48.11;99989.34;5011356;28;20116;-79
2021/07/25 08:29:36;;;;;;;12.02;10.38;;;;;;;26.63;47.76;99986.75;5007935;28;20036;-79
2021/07/25 08:32:03;;;;;;;11.93;10.20;;;;;;;26.74;47.59;99983.16;5022806;28;20117;-79
2021/07/25 08:34:28;;;;;;;12.20;10.88;;;;;;;26.76;47.54;99980.34;5011297;28;20088;-79
2021/07/25 08:36:53;;;;;;;11.25;9.85;;;;;;;26.85;47.65;99976.84;5007566;28;20038;-79
2021/07/25 08:39:19;;;;;;;12.13;10.57;;;;;;;27.00;47.59;99969.31;5005573;28;20034;-79
2021/07/25 08:41:47;;;;;;;11.95;10.38;;;;;;;27.19;47.27;99971.34;5014983;28;20065;-80
2021/07/25 08:44:51;;;;;;;12.35;10.48;;;;;;;27.23;46.60;99975.53;5008589;28;20463;-79
2021/07/25 08:47:26;;;;;;;12.82;10.70;;;;;;;27.34;46.66;99975.47;5009342;28;20596;-79
2021/07/25 08:50:07;;;;;;;11.50;10.30;;;;;;;27.54;46.77;99980.06;5006738;28;20038;-79
2021/07/25 08:52:36;;;;;;;11.50;10.18;;;;;;;27.69;46.07;99974.28;5010244;28;20054;-80
2021/07/25 08:55:07;;;;;;;13.73;10.13;;;;;;;27.77;44.79;99979.91;5017105;28;20033;-79
2021/07/25 08:57:34;;;;;;;;;;;;;;;27.72;45.13;99980.31;5009530;28;20065;-79
2021/07/25 09:00:00;;;;;;;12.52;10.15;;;;;;;27.86;45.19;99976.44;5011196;28;19917;-79
2021/07/25 09:02:28;;;;;;;11.32;10.00;;;;;;;27.95;44.99;99977.47;5007519;28;20492;-79
2021/07/25 09:04:56;;;;;;;11.57;10.38;;;;;;;28.05;44.14;99981.09;5010868;28;20037;-80
2021/07/25 09:07:24;;;;;;;11.00;9.90;;;;;;;27.91;44.88;99982.31;5007485;28;20468;-79
2021/07/25 09:09:52;;;;;;;11.30;10.10;;;;;;;28.01;44.79;99973.34;5007930;28;20040;-80
2021/07/25 09:12:19;;;;;;;11.20;10.00;;;;;;;27.96;44.94;99982.78;5011807;28;20117;-80
2021/07/25 09:14:49;;;;;;;12.70;10.57;;;;;;;28.02;44.97;99980.53;5020888;28;20105;-80
2021/07/25 09:17:15;;;;;;;11.63;10.32;;;;;;;28.14;45.25;99993.00;5008022;28;20038;-79
2021/07/25 09:20:08;;;;;;;11.48;10.27;;;;;;;28.26;44.04;99982.91;5009659;28;20065;-80
2021/07/25 09:22:34;;;;;;;10.45;9.35;;;;;;;28.25;44.37;99973.91;5009400;28;20069;-79
2021/07/25 09:24:59;;;;;;;10.68;9.55;;;;;;;28.45;44.83;99971.28;5008141;28;20042;-79
2021/07/25 09:27:24;;;;;;;11.75;9.68;;;;;;;28.68;44.79;99972.78;5007986;28;20069;-80
2021/07/25 09:29:50;;;;;;;11.35;9.90;;;;;;;28.91;44.37;99967.13;5010593;28;20038;-80
2021/07/25 09:32:17;;;;;;;11.82;9.80;;;;;;;29.19;44.07;99971.75;5002672;28;20034;-80
2021/07/25 09:34:47;;;;;;;11.77;9.48;;;;;;;29.38;42.98;99965.44;5006118;28;20481;-80
2021/07/25 09:37:18;;;;;;;11.52;9.93;;;;;;;29.53;44.08;99968.59;5006393;28;20038;-80
2021/07/25 09:39:47;;;;;;;11.35;9.95;;;;;;;29.62;42.82;99962.25;5006699;28;20046;-80
2021/07/25 09:42:13;;;;;;;11.57;10.38;;;;;;;29.69;42.72;99968.88;5009937;28;20034;-80
2021/07/25 09:44:46;;;;;;;11.98;9.77;;;;;;;29.81;41.98;99969.53;5006675;28;20532;-80
2021/07/25 09:47:25;;;;;;;10.88;9.75;;;;;;;30.06;41.24;99965.34;5007008;28;20049;-79
2021/07/25 09:49:51;;;;;;;10.60;9.50;;;;;;;30.18;41.41;99954.25;5007360;28;20042;-80
2021/07/25 09:52:16;;;;;;;10.95;9.85;;;;;;;30.22;41.26;99952.97;5007134;28;20045;-80
2021/07/25 09:54:42;;;;;;;14.32;10.82;;;;;;;30.12;40.79;99951.13;5009150;28;20480;-80
2021/07/25 09:57:10;;;;;;;11.30;10.13;;;;;;;30.11;40.82;99957.56;5006103;28;20030;-80
2021/07/25 09:59:36;;;;;;;11.55;10.05;;;;;;;30.22;41.12;99950.22;5010007;28;20030;-80
2021/07/25 10:02:01;;;;;;;11.70;10.50;;;;;;;30.36;40.51;99955.19;5006051;28;20035;-80
2021/07/25 10:04:26;;;;;;;10.75;9.65;;;;;;;30.51;40.35;99948.25;5020286;28;20042;-80
2021/07/25 10:06:54;;;;;;;11.35;9.57;;;;;;;30.50;39.74;99962.03;5009114;28;20045;-80
2021/07/25 10:09:21;;;;;;;10.45;9.38;;;;;;;30.54;40.12;99953.38;5007374;28;20034;-80
2021/07/25 10:11:48;;;;;;;10.43;9.40;;;;;;;30.57;39.53;99955.78;5019628;28;20038;-80
2021/07/25 10:14:19;;;;;;;11.75;9.75;;;;;;;30.70;39.78;99951.84;5008021;28;20042;-80
2021/07/25 10:16:45;;;;;;;11.27;9.65;;;;;;;30.89;39.77;99951.78;5007196;28;20041;-80
2021/07/25 10:19:12;;;;;;;10.80;9.43;;;;;;;31.16;39.71;99950.84;5002257;28;20034;-80
2021/07/25 10:21:37;;;;;;;11.05;9.48;;;;;;;31.39;38.59;99948.50;5006460;28;20049;-80
2021/07/25 10:24:04;;;;;;;10.50;9.43;;;;;;;31.53;38.05;99943.50;5007736;28;20030;-80
2021/07/25 10:26:30;;;;;;;11.00;9.57;;;;;;;31.52;38.74;99944.50;5006387;28;20232;-80
2021/07/25 10:28:57;;;;;;;11.18;9.35;;;;;;;31.75;37.68;99942.97;5008627;28;20037;-80
2021/07/25 10:31:24;;;;;;;9.38;8.48;;;;;;;31.92;37.44;99948.53;5005788;28;20128;-80
2021/07/25 10:33:51;;;;;;;11.23;9.32;;;;;;;32.04;36.91;99949.97;5009177;28;20040;-80
2021/07/25 10:36:17;;;;;;;11.85;9.77;;;;;;;32.37;36.80;99948.28;5005470;28;20034;-80
2021/07/25 10:38:45;;;;;;;10.95;9.18;;;;;;;32.50;35.51;99948.69;5004029;28;20130;-80
2021/07/25 10:41:15;;;;;;;11.45;9.80;;;;;;;32.47;36.90;99939.94;5023521;28;20030;-80
2021/07/25 10:43:40;;;;;;;11.00;9.50;;;;;;;32.54;37.33;99941.00;5006776;28;20041;-80
2021/07/25 10:46:16;;;;;;;12.15;10.05;;;;;;;32.55;35.94;99944.63;5007426;28;20030;-81
2021/07/25 10:49:09;;;;;;;12.40;9.55;;;;;;;32.48;36.19;99950.72;5004954;28;20046;-80
2021/07/25 10:51:36;;;;;;;11.65;10.05;;;;;;;32.45;36.44;99944.72;5022698;28;20046;-80
2021/07/25 10:54:24;;;;;;;11.20;10.02;;;;;;;32.52;35.34;99941.19;5006902;28;20034;-80
2021/07/25 10:57:10;;;;;;;12.88;10.35;;;;;;;32.42;36.40;99945.06;5005219;28;20256;-80
2021/07/25 10:59:52;;;;;;;10.15;9.18;;;;;;;32.28;36.39;99936.47;5006400;28;20377;-80
2021/07/25 11:02:20;;;;;;;10.18;9.20;;;;;;;32.52;36.08;99948.53;5005354;28;20044;-80
2021/07/25 11:04:55;;;;;;;10.85;9.65;;;;;;;32.99;34.37;99945.25;5008982;28;20389;-81
2021/07/25 11:07:32;;;;;;;10.40;9.13;;;;;;;33.20;34.60;99943.91;5010701;28;20034;-80
2021/07/25 11:10:00;;;;;;;10.35;9.20;;;;;;;33.22;33.95;99941.84;5011202;28;20042;-80
2021/07/25 11:12:46;;;;;;;10.23;8.98;;;;;;;33.00;33.97;99938.72;5010352;28;20045;-80
2021/07/25 11:15:30;;;;;;;12.07;10.25;;;;;;;32.76;34.57;99934.09;5024239;28;20034;-81
2021/07/25 11:17:57;;;;;;;10.77;8.98;;;;;;;32.93;36.03;99933.09;5009996;28;20034;-80
2021/07/25 11:20:51;;;;;;;9.77;8.88;;;;;;;33.39;33.66;99930.75;5010548;28;20027;-81
2021/07/25 11:23:19;;;;;;;9.93;8.70;;;;;;;33.62;34.44;99935.56;5009641;28;20502;-80